Terminal Aerodrome Forecast
Issued by NWS Northern Indiana

Home | Current Version | Previous Version | Graphics & Text | Print | Product List | Glossary On
Versions: 1 2 3 4 5 6 7 8 9 10 11 12 13
000
FTUS43 KIWX 152336
TAFFWA
TAF
KFWA 152336Z 1600/1624 31010KT P6SM VCSH SCT020 BKN040
     FM160400 30005KT P6SM BKN040
     FM161500 29010KT P6SM SCT040 BKN250=

USA.gov is the U.S. government's official web portal to all federal, state and local government web resources and services.